Time;durP1;ratioP1;P1;durP2;ratioP2;P2;SDS_P1;SDS_P2;PMS_P1;PMS_P2;Temp;Humidity;BMP_temperature;BMP_pressure;BME280_temperature;BME280_humidity;BME280_pressure;Samples;Min_cycle;Max_cycle;Signal;HPM_P1;HPM_P2
2023/12/22 00:01:40;;;;;;;9.20;1.52;;;;;;;4.77;100.00;100115.00;5029637;28;20108;-63
2023/12/22 00:04:06;;;;;;;9.75;1.80;;;;;;;4.77;100.00;100114.13;5029531;28;20029;-63
2023/12/22 00:06:32;;;;;;;10.02;2.13;;;;;;;4.76;100.00;100114.94;5050690;28;20457;-63
2023/12/22 00:08:57;;;;;;;11.90;1.90;;;;;;;4.74;100.00;100116.56;5048201;28;20115;-63
2023/12/22 00:11:23;;;;;;;10.40;1.65;;;;;;;4.74;100.00;100120.00;5039647;28;20080;-63
2023/12/22 00:13:48;;;;;;;11.00;1.98;;;;;;;4.73;100.00;100105.41;5041355;28;20039;-63
2023/12/22 00:16:13;;;;;;;17.77;2.38;;;;;;;4.73;100.00;100101.97;5043454;28;20028;-63
2023/12/22 00:18:38;;;;;;;11.07;2.10;;;;;;;4.72;100.00;100106.22;5039723;28;20026;-63
2023/12/22 00:21:04;;;;;;;10.50;1.60;;;;;;;4.72;100.00;100133.56;5035624;28;20025;-63
2023/12/22 00:23:29;;;;;;;8.43;1.98;;;;;;;4.73;100.00;100113.09;5047501;28;20029;-63
2023/12/22 00:25:54;;;;;;;10.73;2.30;;;;;;;4.72;100.00;100137.03;5042399;28;20025;-63
2023/12/22 00:28:19;;;;;;;10.15;2.22;;;;;;;4.74;100.00;100137.09;5040565;28;20025;-63
2023/12/22 00:30:45;;;;;;;15.02;3.45;;;;;;;4.73;100.00;100143.91;5046868;28;20021;-63
2023/12/22 00:33:10;;;;;;;9.63;2.15;;;;;;;4.72;100.00;100131.91;5047823;28;20021;-63
2023/12/22 00:35:35;;;;;;;7.10;1.58;;;;;;;4.72;100.00;100141.28;5046883;28;20063;-63
2023/12/22 00:38:01;;;;;;;14.43;2.38;;;;;;;4.70;100.00;100143.78;5047496;28;20481;-63
2023/12/22 00:40:26;;;;;;;8.63;2.17;;;;;;;4.69;100.00;100136.91;5048256;28;20423;-63
2023/12/22 00:42:51;;;;;;;10.27;1.45;;;;;;;4.68;100.00;100143.72;5047176;28;20309;-63
2023/12/22 00:45:17;;;;;;;9.80;1.75;;;;;;;4.68;100.00;100145.41;5048586;28;20025;-63
2023/12/22 00:47:42;;;;;;;15.25;2.72;;;;;;;4.67;100.00;100156.47;5046429;28;20037;-63
2023/12/22 00:50:08;;;;;;;8.98;1.70;;;;;;;4.67;100.00;100134.28;5048614;28;20381;-63
2023/12/22 00:52:33;;;;;;;12.98;1.70;;;;;;;4.67;100.00;100148.78;5045820;28;20084;-64
2023/12/22 00:54:58;;;;;;;9.88;1.90;;;;;;;4.66;100.00;100147.00;5048779;28;20106;-63
2023/12/22 00:57:24;;;;;;;10.13;2.22;;;;;;;4.67;100.00;100143.66;5045442;28;20051;-63
2023/12/22 00:59:49;;;;;;;10.30;1.83;;;;;;;4.65;100.00;100141.00;5047688;28;20044;-62
2023/12/22 01:02:15;;;;;;;10.27;2.15;;;;;;;4.63;100.00;100146.88;5047395;28;20098;-62
2023/12/22 01:04:41;;;;;;;11.10;1.98;;;;;;;4.61;100.00;100153.63;5048556;28;20685;-63
2023/12/22 01:07:10;;;;;;;11.48;2.63;;;;;;;4.61;100.00;100149.38;5045502;28;20021;-62
2023/12/22 01:09:37;;;;;;;11.25;2.90;;;;;;;4.59;100.00;100142.44;5033863;28;20116;-63
2023/12/22 01:12:03;;;;;;;15.18;1.92;;;;;;;4.57;100.00;100137.22;5034899;28;20033;-63
2023/12/22 01:14:29;;;;;;;15.13;2.58;;;;;;;4.52;100.00;100134.44;5033757;28;20032;-63
2023/12/22 01:16:54;;;;;;;12.32;2.85;;;;;;;4.53;100.00;100130.19;5060078;28;20020;-63
2023/12/22 01:19:20;;;;;;;17.38;2.58;;;;;;;4.53;100.00;100140.47;5045837;28;20032;-63
2023/12/22 01:21:45;;;;;;;14.85;2.08;;;;;;;4.53;100.00;100154.16;5035460;28;20064;-62
2023/12/22 01:24:11;;;;;;;17.52;2.70;;;;;;;4.56;100.00;100140.59;5041703;28;20115;-63
2023/12/22 01:26:36;;;;;;;9.93;2.15;;;;;;;4.59;100.00;100150.13;5039233;28;20037;-63
2023/12/22 01:29:01;;;;;;;16.88;2.80;;;;;;;4.60;100.00;100163.03;5030943;28;20084;-63
2023/12/22 01:31:27;;;;;;;7.78;2.17;;;;;;;4.63;100.00;100162.28;5038421;28;20108;-63
2023/12/22 01:33:52;;;;;;;9.10;1.55;;;;;;;4.65;100.00;100170.94;5053745;28;20457;-62
2023/12/22 01:36:17;;;;;;;17.92;3.92;;;;;;;4.67;100.00;100153.91;5032553;28;20455;-62
2023/12/22 01:38:43;;;;;;;14.20;2.50;;;;;;;4.70;100.00;100159.19;5046789;28;20021;-63
2023/12/22 01:41:08;;;;;;;16.00;2.65;;;;;;;4.72;100.00;100165.25;5049272;28;20509;-62
2023/12/22 01:43:33;;;;;;;16.45;3.10;;;;;;;4.76;100.00;100168.84;5037394;28;20021;-63
2023/12/22 01:45:59;;;;;;;12.38;2.78;;;;;;;4.79;100.00;100154.47;5051369;28;20035;-63
2023/12/22 01:48:26;;;;;;;12.98;2.28;;;;;;;4.87;100.00;100156.50;5049316;28;20107;-62
2023/12/22 01:50:55;;;;;;;11.80;2.30;;;;;;;4.91;100.00;100153.25;5042717;28;20412;-63
2023/12/22 01:53:20;;;;;;;11.55;2.50;;;;;;;4.98;100.00;100168.13;5051818;28;20057;-63
2023/12/22 01:55:48;;;;;;;14.93;3.05;;;;;;;5.02;100.00;100158.84;5044129;28;20094;-62
2023/12/22 01:58:13;;;;;;;11.68;2.08;;;;;;;5.03;100.00;100168.31;5046896;28;20047;-63
2023/12/22 02:00:39;;;;;;;12.23;2.80;;;;;;;5.07;100.00;100174.47;5036224;28;20465;-63
2023/12/22 02:03:04;;;;;;;17.58;2.85;;;;;;;5.09;100.00;100178.84;5037762;28;20029;-63
2023/12/22 02:05:30;;;;;;;13.88;2.45;;;;;;;5.11;100.00;100186.66;5046689;28;20480;-63
2023/12/22 02:07:55;;;;;;;12.55;2.42;;;;;;;5.10;100.00;100179.72;5046781;28;20031;-62
2023/12/22 02:10:21;;;;;;;13.02;2.33;;;;;;;5.14;100.00;100186.78;5045286;28;20116;-62
2023/12/22 02:12:46;;;;;;;15.57;2.92;;;;;;;5.20;100.00;100181.88;5045026;28;20059;-63
2023/12/22 02:15:12;;;;;;;12.23;2.30;;;;;;;5.22;100.00;100166.53;5044908;28;20029;-62
2023/12/22 02:17:37;;;;;;;14.50;2.25;;;;;;;5.25;100.00;100179.53;5042808;28;20596;-62
2023/12/22 02:20:04;;;;;;;11.45;2.42;;;;;;;5.28;100.00;100177.09;5048390;28;20112;-63
2023/12/22 02:22:29;;;;;;;10.45;2.40;;;;;;;5.27;100.00;100168.50;5047296;28;20033;-63
2023/12/22 02:24:54;;;;;;;9.55;2.08;;;;;;;5.26;100.00;100169.31;5045252;28;20051;-63
2023/12/22 02:27:49;;;;;;;12.65;2.08;;;;;;;5.24;100.00;100165.81;5032867;28;20035;-63
2023/12/22 02:30:39;;;;;;;15.40;2.72;;;;;;;5.24;100.00;100162.34;5045879;28;20033;-63
2023/12/22 02:33:06;;;;;;;11.55;2.20;;;;;;;5.24;100.00;100173.50;5046510;28;20116;-63
2023/12/22 02:35:35;;;;;;;12.20;2.30;;;;;;;5.27;100.00;100165.94;5050081;28;20064;-63
2023/12/22 02:38:03;;;;;;;9.25;2.08;;;;;;;5.27;100.00;100180.50;5063622;28;20107;-63
2023/12/22 02:40:28;;;;;;;10.10;2.72;;;;;;;5.32;100.00;100190.94;5038015;28;20028;-63
2023/12/22 02:42:54;;;;;;;15.48;2.65;;;;;;;5.34;100.00;100191.91;5055974;28;20025;-63
2023/12/22 02:45:19;;;;;;;9.10;2.28;;;;;;;5.34;100.00;100195.34;5043489;28;20051;-63
2023/12/22 02:47:45;;;;;;;14.77;2.53;;;;;;;5.35;100.00;100175.66;5030982;28;20095;-63
2023/12/22 02:50:12;;;;;;;12.80;2.05;;;;;;;5.35;100.00;100181.69;5044385;28;20037;-63
2023/12/22 02:52:38;;;;;;;10.77;1.80;;;;;;;5.33;100.00;100188.44;5055098;28;20464;-63
2023/12/22 02:55:04;;;;;;;11.43;2.35;;;;;;;5.31;100.00;100194.34;5043798;28;20025;-63
2023/12/22 02:57:29;;;;;;;11.90;2.58;;;;;;;5.27;100.00;100193.34;5036723;28;20056;-63
2023/12/22 02:59:56;;;;;;;13.43;2.88;;;;;;;5.25;100.00;100177.81;5038615;28;20060;-62
2023/12/22 03:02:21;;;;;;;10.88;1.90;;;;;;;5.21;100.00;100175.97;5055555;28;20035;-63
2023/12/22 03:04:47;;;;;;;12.95;2.15;;;;;;;5.17;100.00;100168.91;5057129;28;20036;-63
2023/12/22 03:07:12;;;;;;;10.93;2.53;;;;;;;5.13;100.00;100174.72;5056123;28;20028;-63
2023/12/22 03:09:39;;;;;;;12.25;2.05;;;;;;;5.12;100.00;100160.13;5049601;28;20484;-62
2023/12/22 03:12:04;;;;;;;7.78;2.17;;;;;;;5.09;100.00;100158.28;5051234;28;20025;-63
2023/12/22 03:14:32;;;;;;;10.45;1.95;;;;;;;5.08;100.00;100155.66;5049661;28;20029;-63
2023/12/22 03:16:58;;;;;;;14.38;2.45;;;;;;;5.04;100.00;100140.13;5049112;28;20037;-63
2023/12/22 03:19:24;;;;;;;16.38;3.20;;;;;;;5.02;100.00;100131.47;5050712;28;20090;-63
2023/12/22 03:21:49;;;;;;;14.00;2.40;;;;;;;5.03;100.00;100143.53;5049982;28;20025;-63
2023/12/22 03:24:14;;;;;;;14.60;2.63;;;;;;;5.00;100.00;100133.09;5049556;28;20025;-63
2023/12/22 03:26:40;;;;;;;10.68;2.45;;;;;;;5.02;100.00;100140.88;5049043;28;20055;-63
2023/12/22 03:29:05;;;;;;;14.05;2.55;;;;;;;5.01;100.00;100141.69;5036171;28;20025;-63
2023/12/22 03:31:30;;;;;;;9.23;1.98;;;;;;;5.03;100.00;100138.38;5049830;28;20031;-62
2023/12/22 03:33:56;;;;;;;13.23;2.00;;;;;;;5.05;100.00;100162.41;5032973;28;20424;-62
2023/12/22 03:36:21;;;;;;;15.18;3.00;;;;;;;5.07;100.00;100152.25;5047364;28;20108;-63
2023/12/22 03:38:47;;;;;;;12.32;2.40;;;;;;;5.08;100.00;100158.25;5058713;28;20052;-62
2023/12/22 03:41:12;;;;;;;17.88;2.63;;;;;;;5.11;100.00;100163.53;5032363;28;20056;-63
2023/12/22 03:43:37;;;;;;;12.48;2.60;;;;;;;5.14;100.00;100161.97;5052183;28;20032;-63
2023/12/22 03:46:02;;;;;;;12.05;2.35;;;;;;;5.15;100.00;100162.81;5060973;28;20052;-63
2023/12/22 03:48:28;;;;;;;12.80;2.25;;;;;;;5.18;100.00;100167.22;5044115;28;20087;-63
2023/12/22 03:50:53;;;;;;;11.07;2.17;;;;;;;5.19;100.00;100154.47;5045893;28;20029;-63
2023/12/22 03:53:19;;;;;;;10.77;2.33;;;;;;;5.26;100.00;100160.72;5049338;28;20397;-62
2023/12/22 03:55:44;;;;;;;11.25;2.20;;;;;;;5.28;100.00;100165.13;5041180;28;20024;-63
2023/12/22 03:58:11;;;;;;;12.82;2.40;;;;;;;5.32;100.00;100167.81;5054888;28;20025;-63
2023/12/22 04:00:36;;;;;;;12.43;1.88;;;;;;;5.36;100.00;100162.00;5037259;28;20025;-63
2023/12/22 04:03:01;;;;;;;8.38;1.92;;;;;;;5.43;100.00;100169.16;5044534;28;20038;-63
2023/12/22 04:05:27;;;;;;;14.63;2.40;;;;;;;5.46;100.00;100178.69;5048717;28;20470;-62
2023/12/22 04:07:52;;;;;;;12.00;2.22;;;;;;;5.50;100.00;100171.19;5057738;28;20150;-62
2023/12/22 04:10:18;;;;;;;9.73;2.30;;;;;;;5.52;100.00;100182.38;5037149;28;21132;-63
2023/12/22 04:12:43;;;;;;;12.68;2.17;;;;;;;5.56;100.00;100190.25;5038056;28;20396;-63
2023/12/22 04:15:09;;;;;;;10.20;1.98;;;;;;;5.58;100.00;100178.31;5045462;28;20068;-62
2023/12/22 04:17:34;;;;;;;12.90;1.88;;;;;;;5.61;100.00;100188.75;5038192;28;20020;-62
2023/12/22 04:20:02;;;;;;;10.65;2.00;;;;;;;5.67;100.00;100185.56;5036677;28;20063;-63
2023/12/22 04:22:27;;;;;;;12.63;2.35;;;;;;;5.71;100.00;100184.84;5045342;28;20030;-63
2023/12/22 04:24:53;;;;;;;11.70;2.40;;;;;;;5.75;100.00;100197.03;5048247;28;20031;-63
2023/12/22 04:27:19;;;;;;;10.30;1.75;;;;;;;5.79;100.00;100198.91;5034531;28;20059;-63
2023/12/22 04:29:44;;;;;;;12.07;2.17;;;;;;;5.80;100.00;100216.09;5037251;28;20114;-63
2023/12/22 04:32:09;;;;;;;14.18;2.13;;;;;;;5.80;100.00;100207.50;5027463;28;20556;-63
2023/12/22 04:34:34;;;;;;;7.88;1.50;;;;;;;5.81;100.00;100214.41;5038773;28;20074;-63
2023/12/22 04:37:00;;;;;;;10.95;1.88;;;;;;;5.85;100.00;100212.00;5040531;28;20043;-63
2023/12/22 04:39:25;;;;;;;15.27;2.25;;;;;;;5.89;100.00;100210.44;5046143;28;20025;-63
2023/12/22 04:41:50;;;;;;;8.90;1.88;;;;;;;5.88;100.00;100219.84;5047882;28;20032;-63
2023/12/22 04:44:15;;;;;;;12.02;1.98;;;;;;;5.88;100.00;100213.84;5063844;28;20028;-63
2023/12/22 04:46:41;;;;;;;8.38;1.90;;;;;;;5.90;100.00;100219.91;5047102;28;20033;-63
2023/12/22 04:49:06;;;;;;;9.90;2.38;;;;;;;5.90;100.00;100207.03;5031254;28;20507;-63
2023/12/22 04:51:31;;;;;;;10.98;2.70;;;;;;;5.91;100.00;100213.97;5047524;28;20072;-63
2023/12/22 04:53:56;;;;;;;15.27;2.13;;;;;;;5.90;100.00;100212.19;5045665;28;20384;-63
2023/12/22 04:56:22;;;;;;;10.73;2.03;;;;;;;5.90;100.00;100217.34;5035653;28;20033;-63
2023/12/22 04:58:47;;;;;;;12.93;2.28;;;;;;;5.91;100.00;100224.25;5053316;28;20014;-63
2023/12/22 05:01:12;;;;;;;11.32;1.98;;;;;;;5.93;100.00;100220.06;5030352;28;20021;-63
2023/12/22 05:03:37;;;;;;;13.32;1.90;;;;;;;5.91;100.00;100216.53;5033609;28;20048;-63
2023/12/22 05:06:04;;;;;;;9.02;1.65;;;;;;;5.92;100.00;100243.16;5037818;28;20022;-63
2023/12/22 05:08:29;;;;;;;8.07;2.72;;;;;;;5.94;100.00;100237.22;5034252;28;20102;-63
2023/12/22 05:10:54;;;;;;;9.63;2.35;;;;;;;5.96;100.00;100225.31;5047062;28;20084;-63
2023/12/22 05:13:20;;;;;;;7.07;1.77;;;;;;;5.98;100.00;100233.97;5033622;28;20029;-63
2023/12/22 05:15:45;;;;;;;14.40;2.50;;;;;;;6.01;100.00;100244.38;5040735;28;20020;-63
2023/12/22 05:18:11;;;;;;;8.85;2.10;;;;;;;6.03;100.00;100226.44;5036689;28;20032;-63
2023/12/22 05:20:36;;;;;;;6.85;1.75;;;;;;;6.05;100.00;100245.44;5047239;28;21181;-63
2023/12/22 05:23:01;;;;;;;7.07;1.88;;;;;;;6.08;100.00;100231.81;5032400;28;20052;-63
2023/12/22 05:25:27;;;;;;;7.90;1.63;;;;;;;6.10;100.00;100225.03;5029052;28;20389;-63
2023/12/22 05:27:52;;;;;;;7.28;1.48;;;;;;;6.11;100.00;100237.09;5027868;28;20037;-63
2023/12/22 05:30:17;;;;;;;10.25;1.38;;;;;;;6.11;100.00;100227.69;5043288;28;20036;-63
2023/12/22 05:32:44;;;;;;;7.25;2.05;;;;;;;6.10;100.00;100246.50;5050471;28;20033;-63
2023/12/22 05:35:10;;;;;;;8.40;1.63;;;;;;;6.10;100.00;100243.03;5053648;28;20069;-62
2023/12/22 05:37:35;;;;;;;6.78;1.83;;;;;;;6.08;100.00;100226.69;5041199;28;20033;-63
2023/12/22 05:40:00;;;;;;;11.80;2.08;;;;;;;6.08;100.00;100224.09;5046302;28;20032;-63
2023/12/22 05:42:26;;;;;;;10.20;2.50;;;;;;;6.08;100.00;100212.09;5046980;28;20033;-63
2023/12/22 05:44:51;;;;;;;11.32;2.65;;;;;;;6.10;100.00;100214.72;5046104;28;20025;-62
2023/12/22 05:47:17;;;;;;;14.05;3.90;;;;;;;6.11;100.00;100201.97;5045072;28;20070;-62
2023/12/22 05:49:43;;;;;;;11.82;2.97;;;;;;;6.13;100.00;100209.72;5027411;28;20033;-63
2023/12/22 05:52:09;;;;;;;18.23;4.43;;;;;;;6.15;100.00;100213.25;5043531;28;20087;-62
2023/12/22 05:54:35;;;;;;;16.05;3.13;;;;;;;6.18;100.00;100222.78;5043995;28;20225;-63
2023/12/22 05:57:00;;;;;;;18.60;3.88;;;;;;;6.21;100.00;100223.78;5045893;28;20025;-63
2023/12/22 05:59:27;;;;;;;16.25;3.58;;;;;;;6.26;100.00;100216.22;5050749;28;20032;-63
2023/12/22 06:01:56;;;;;;;15.13;3.83;;;;;;;6.30;100.00;100201.78;5054795;28;20025;-63
2023/12/22 06:04:21;;;;;;;15.55;3.60;;;;;;;6.32;100.00;100206.19;5040102;28;20371;-63
2023/12/22 06:06:46;;;;;;;19.40;4.00;;;;;;;6.36;100.00;100214.91;5041243;28;20017;-63
2023/12/22 06:09:12;;;;;;;17.20;4.57;;;;;;;6.36;100.00;100223.50;5053558;28;20025;-63
2023/12/22 06:11:39;;;;;;;17.98;3.40;;;;;;;6.35;100.00;100223.47;5057620;28;20052;-63
2023/12/22 06:14:05;;;;;;;13.15;3.53;;;;;;;6.32;100.00;100207.88;5055342;28;20032;-63
2023/12/22 06:16:31;;;;;;;16.20;3.40;;;;;;;6.29;100.00;100206.06;5043065;28;20551;-63
2023/12/22 06:18:56;;;;;;;20.70;4.88;;;;;;;6.28;100.00;100198.28;5053529;28;20103;-63
2023/12/22 06:21:21;;;;;;;14.52;3.95;;;;;;;6.26;100.00;100200.78;5047687;28;20071;-63
2023/12/22 06:23:47;;;;;;;16.35;4.28;;;;;;;6.24;100.00;100187.84;5051993;28;20514;-63
2023/12/22 06:26:12;;;;;;;21.60;4.60;;;;;;;6.23;100.00;100190.38;5048588;28;20033;-63
2023/12/22 06:28:39;;;;;;;20.45;4.45;;;;;;;6.23;100.00;100196.41;5048220;28;20497;-63
2023/12/22 06:31:05;;;;;;;26.35;5.05;;;;;;;6.23;100.00;100201.56;5031413;28;20381;-63
2023/12/22 06:33:30;;;;;;;23.48;4.60;;;;;;;6.24;100.00;100203.28;5042766;28;20067;-63
2023/12/22 06:35:56;;;;;;;24.67;5.05;;;;;;;6.21;100.00;100213.47;5044605;28;20064;-63
2023/12/22 06:38:21;;;;;;;23.17;5.28;;;;;;;6.23;100.00;100214.41;5049777;28;20540;-63
2023/12/22 06:40:46;;;;;;;21.40;4.43;;;;;;;6.25;100.00;100224.78;5042410;28;20124;-63
2023/12/22 06:43:12;;;;;;;16.40;3.97;;;;;;;6.27;100.00;100224.81;5038286;28;20036;-63
2023/12/22 06:45:39;;;;;;;21.80;4.68;;;;;;;6.30;100.00;100230.97;5038159;28;20470;-63
2023/12/22 06:48:05;;;;;;;20.73;4.47;;;;;;;6.33;100.00;100228.50;5047178;28;20053;-63
2023/12/22 06:50:31;;;;;;;25.13;5.13;;;;;;;6.34;100.00;100226.84;5051852;28;20162;-63
2023/12/22 06:52:56;;;;;;;28.02;5.35;;;;;;;6.36;100.00;100217.47;5042295;28;20493;-63
2023/12/22 06:55:21;;;;;;;25.58;5.68;;;;;;;6.37;100.00;100229.50;5053644;28;20075;-62
2023/12/22 06:57:46;;;;;;;21.60;4.60;;;;;;;6.40;100.00;100234.81;5057697;28;20058;-63
2023/12/22 07:00:12;;;;;;;22.60;5.20;;;;;;;6.43;100.00;100221.16;5039312;28;20025;-64
2023/12/22 07:02:37;;;;;;;20.70;4.88;;;;;;;6.46;100.00;100226.41;5055003;28;20585;-64
2023/12/22 07:05:23;;;;;;;23.65;5.32;;;;;;;6.48;100.00;100230.81;5038939;28;20033;-63
2023/12/22 07:07:48;;;;;;;30.00;6.50;;;;;;;6.52;100.00;100226.69;5051171;28;20040;-63
2023/12/22 07:10:13;;;;;;;26.60;4.82;;;;;;;6.52;100.00;100223.22;5051697;28;20071;-63
2023/12/22 07:12:39;;;;;;;22.15;4.80;;;;;;;6.55;100.00;100218.22;5042227;28;20041;-63
2023/12/22 07:15:08;;;;;;;27.52;5.53;;;;;;;6.56;100.00;100214.81;5058874;28;20017;-63
2023/12/22 07:17:34;;;;;;;23.27;5.28;;;;;;;6.57;100.00;100211.41;5059605;28;20527;-63
2023/12/22 07:19:59;;;;;;;23.98;5.45;;;;;;;6.57;100.00;100211.41;5050684;28;20020;-62
2023/12/22 07:22:24;;;;;;;24.15;5.38;;;;;;;6.59;100.00;100225.22;5042242;28;20072;-62
2023/12/22 07:24:52;;;;;;;27.42;5.43;;;;;;;6.62;100.00;100234.75;5038259;28;20028;-62
2023/12/22 07:27:17;;;;;;;26.00;5.50;;;;;;;6.65;100.00;100210.00;5044893;28;20040;-62
2023/12/22 07:29:43;;;;;;;33.08;5.93;;;;;;;6.67;100.00;100218.69;5048254;28;20037;-63
2023/12/22 07:32:08;;;;;;;32.53;5.20;;;;;;;6.68;100.00;100210.13;5043754;28;20439;-62
2023/12/22 07:34:33;;;;;;;26.02;5.78;;;;;;;6.69;100.00;100216.16;5034550;28;20331;-63
2023/12/22 07:36:58;;;;;;;25.02;5.55;;;;;;;6.71;100.00;100215.38;5053164;28;20428;-63
2023/12/22 07:39:24;;;;;;;20.38;4.32;;;;;;;6.73;100.00;100218.88;5044501;28;20028;-63
2023/12/22 07:41:49;;;;;;;22.15;5.30;;;;;;;6.75;100.00;100210.34;5044961;28;20493;-63
2023/12/22 07:44:14;;;;;;;26.23;4.93;;;;;;;6.77;100.00;100214.72;5047746;28;20039;-63
2023/12/22 07:46:40;;;;;;;23.95;4.95;;;;;;;6.77;100.00;100211.28;5047182;28;20055;-63
2023/12/22 07:49:05;;;;;;;19.98;4.40;;;;;;;6.75;100.00;100218.94;5045841;28;20018;-63
2023/12/22 07:51:31;;;;;;;20.17;4.85;;;;;;;6.75;100.00;100207.75;5047904;28;20045;-63
2023/12/22 07:53:56;;;;;;;20.60;4.57;;;;;;;6.80;100.00;100203.69;5045701;28;20574;-63
2023/12/22 07:56:22;;;;;;;23.08;5.10;;;;;;;6.79;100.00;100197.66;5046446;28;20517;-64
2023/12/22 07:58:47;;;;;;;24.63;5.82;;;;;;;6.79;100.00;100207.94;5044737;28;20108;-63
2023/12/22 08:01:15;;;;;;;22.45;5.18;;;;;;;6.83;100.00;100204.69;5039259;28;20103;-62
2023/12/22 08:03:40;;;;;;;16.52;5.53;;;;;;;6.84;100.00;100210.69;5047924;28;20024;-63
2023/12/22 08:06:05;;;;;;;19.17;5.13;;;;;;;6.85;100.00;100207.31;5048547;28;20033;-62
2023/12/22 08:08:31;;;;;;;19.02;4.97;;;;;;;6.87;100.00;100215.97;5057623;28;20104;-62
2023/12/22 08:10:56;;;;;;;23.38;4.90;;;;;;;6.88;100.00;100201.38;5057144;28;20419;-62
2023/12/22 08:13:22;;;;;;;23.80;5.13;;;;;;;6.88;100.00;100201.38;5056650;28;20414;-63
2023/12/22 08:15:47;;;;;;;27.08;5.60;;;;;;;6.90;100.00;100216.06;5048984;28;20036;-63
2023/12/22 08:18:12;;;;;;;19.20;4.28;;;;;;;6.92;100.00;100210.97;5039658;28;20098;-62
2023/12/22 08:20:39;;;;;;;20.23;4.35;;;;;;;6.93;100.00;100207.56;5045470;28;20049;-62
2023/12/22 08:23:04;;;;;;;19.00;4.03;;;;;;;6.93;100.00;100205.00;5047129;28;20107;-63
2023/12/22 08:25:29;;;;;;;17.73;3.97;;;;;;;6.95;100.00;100204.25;5058755;28;20450;-63
2023/12/22 08:27:54;;;;;;;21.23;4.13;;;;;;;6.99;100.00;100206.91;5056229;28;20028;-63
2023/12/22 08:30:20;;;;;;;21.02;4.57;;;;;;;7.00;100.00;100206.13;5051794;28;20090;-63
2023/12/22 08:32:45;;;;;;;18.50;4.50;;;;;;;7.03;100.00;100213.94;5038487;28;20521;-62
2023/12/22 08:35:10;;;;;;;14.85;4.20;;;;;;;7.02;100.00;100205.34;5042925;28;20086;-63
2023/12/22 08:37:36;;;;;;;11.25;3.13;;;;;;;7.06;100.00;100208.91;5047614;28;20482;-63
2023/12/22 08:40:01;;;;;;;15.05;3.08;;;;;;;7.06;100.00;100202.06;5038407;28;20055;-62
2023/12/22 08:42:29;;;;;;;15.60;2.85;;;;;;;7.09;100.00;100196.13;5043425;28;20029;-63
2023/12/22 08:44:54;;;;;;;14.02;3.15;;;;;;;7.09;100.00;100186.69;5038701;28;20031;-63
2023/12/22 08:47:19;;;;;;;15.98;3.03;;;;;;;7.13;100.00;100200.56;5042870;28;20040;-63
2023/12/22 08:49:44;;;;;;;11.20;2.63;;;;;;;7.14;100.00;100199.75;5038079;28;20056;-63
2023/12/22 08:52:10;;;;;;;14.55;2.60;;;;;;;7.17;100.00;100204.13;5037046;28;20095;-62
2023/12/22 08:54:35;;;;;;;11.77;2.83;;;;;;;7.21;100.00;100199.13;5046780;28;20048;-63
2023/12/22 08:57:03;;;;;;;11.30;2.25;;;;;;;7.21;100.00;100200.84;5036561;28;20033;-62
2023/12/22 08:59:28;;;;;;;11.13;2.58;;;;;;;7.23;100.00;100193.19;5027238;28;20033;-63
2023/12/22 09:01:54;;;;;;;11.93;2.30;;;;;;;7.23;100.00;100195.75;5048437;28;20078;-63
2023/12/22 09:04:22;;;;;;;10.70;2.40;;;;;;;7.24;100.00;100200.06;5055548;28;20037;-63
2023/12/22 09:06:47;;;;;;;12.18;2.40;;;;;;;7.26;100.00;100199.31;5047347;28;20116;-63
2023/12/22 09:09:13;;;;;;;11.23;2.05;;;;;;;7.27;100.00;100188.16;5047842;28;20548;-62
2023/12/22 09:11:38;;;;;;;6.70;2.00;;;;;;;7.29;100.00;100183.06;5046553;28;20068;-62
2023/12/22 09:14:09;;;;;;;11.90;2.15;;;;;;;7.31;100.00;100181.44;5046902;28;20029;-63
2023/12/22 09:16:35;;;;;;;8.02;1.60;;;;;;;7.32;100.00;100191.78;5045267;28;20035;-62
2023/12/22 09:19:00;;;;;;;6.70;1.40;;;;;;;7.35;100.00;100188.44;5047433;28;20412;-63
2023/12/22 09:21:26;;;;;;;7.25;1.50;;;;;;;7.36;100.00;100200.50;5046402;28;20074;-63
2023/12/22 09:23:51;;;;;;;5.40;1.52;;;;;;;7.38;100.00;100196.28;5047378;28;20409;-63
2023/12/22 09:26:17;;;;;;;8.13;1.80;;;;;;;7.39;100.00;100190.31;5041993;28;20024;-63
2023/12/22 09:28:43;;;;;;;9.68;1.67;;;;;;;7.41;100.00;100191.22;5044426;28;20044;-63
2023/12/22 09:31:09;;;;;;;4.60;1.20;;;;;;;7.43;100.00;100192.16;5043268;28;20053;-62
2023/12/22 09:33:34;;;;;;;6.55;1.70;;;;;;;7.44;100.00;100182.72;5043325;28;20028;-63
2023/12/22 09:36:00;;;;;;;4.68;1.30;;;;;;;7.47;100.00;100172.53;5053185;28;20029;-64
2023/12/22 09:38:25;;;;;;;7.10;1.30;;;;;;;7.48;100.00;100179.44;5046226;28;20061;-62
2023/12/22 09:40:51;;;;;;;7.82;1.10;;;;;;;7.52;100.00;100170.13;5042169;28;20013;-63
2023/12/22 09:43:19;;;;;;;5.82;1.17;;;;;;;7.55;100.00;100175.38;5047450;28;20025;-63
2023/12/22 09:45:45;;;;;;;6.28;1.23;;;;;;;7.55;100.00;100160.78;5042565;28;20029;-63
2023/12/22 09:48:16;;;;;;;3.92;0.90;;;;;;;7.58;100.00;100165.16;5046261;28;20035;-63
2023/12/22 09:50:42;;;;;;;6.85;1.20;;;;;;;7.62;100.00;100171.28;5035974;28;20021;-63
2023/12/22 09:53:09;;;;;;;5.03;1.45;;;;;;;7.63;100.00;100163.59;5045865;28;20049;-63
2023/12/22 09:55:35;;;;;;;6.20;1.00;;;;;;;7.68;100.00;100176.66;5058470;28;20040;-63
2023/12/22 09:58:02;;;;;;;5.05;0.80;;;;;;;7.71;100.00;100175.88;5052332;28;20357;-63
2023/12/22 10:00:28;;;;;;;2.70;0.98;;;;;;;7.73;100.00;100164.78;5051319;28;20032;-63
2023/12/22 10:02:54;;;;;;;6.97;1.15;;;;;;;7.78;100.00;100157.19;5040241;28;20021;-63
2023/12/22 10:05:19;;;;;;;2.60;1.00;;;;;;;7.82;100.00;100164.22;5052037;28;20041;-62
2023/12/22 10:07:47;;;;;;;3.55;0.70;;;;;;;7.85;100.00;100156.56;5043464;28;20484;-63
2023/12/22 10:10:12;;;;;;;5.07;1.33;;;;;;;7.91;100.00;100172.25;5057566;28;20373;-63
2023/12/22 10:12:39;;;;;;;1.85;0.70;;;;;;;7.95;100.00;100169.78;5045013;28;20023;-62
2023/12/22 10:15:06;;;;;;;4.05;0.85;;;;;;;7.97;100.00;100168.13;5045434;28;20027;-62
2023/12/22 10:17:32;;;;;;;5.05;1.00;;;;;;;7.98;100.00;100159.53;5040063;28;20033;-63
2023/12/22 10:19:57;;;;;;;3.42;0.70;;;;;;;8.01;100.00;100163.09;5049948;28;20028;-62
2023/12/22 10:22:23;;;;;;;6.40;1.10;;;;;;;8.04;100.00;100185.56;5050087;28;20026;-63
2023/12/22 10:24:50;;;;;;;7.53;0.90;;;;;;;8.04;100.00;100175.22;5053221;28;20510;-63
2023/12/22 10:27:21;;;;;;;4.93;1.15;;;;;;;8.08;100.00;100171.91;5059715;28;20023;-62
2023/12/22 10:29:53;;;;;;;4.88;0.93;;;;;;;8.12;100.00;100165.13;5044258;28;20056;-63
2023/12/22 10:32:19;;;;;;;4.40;0.95;;;;;;;8.12;100.00;100173.75;5037580;28;20036;-63
2023/12/22 10:34:45;;;;;;;2.75;1.02;;;;;;;8.13;100.00;100170.34;5048957;28;20032;-62
2023/12/22 10:37:12;;;;;;;3.83;1.00;;;;;;;8.16;100.00;100170.44;5039550;28;20024;-63
2023/12/22 10:39:38;;;;;;;6.55;1.10;;;;;;;8.19;100.00;100168.78;5049183;28;20392;-63
2023/12/22 10:42:04;;;;;;;5.93;1.38;;;;;;;8.24;100.00;100182.72;5048325;28;20342;-63
2023/12/22 10:44:30;;;;;;;7.35;1.38;;;;;;;8.24;100.00;100177.56;5034207;28;20116;-63
2023/12/22 10:46:56;;;;;;;2.47;0.88;;;;;;;8.27;100.00;100175.06;5033406;28;20059;-62
2023/12/22 10:49:22;;;;;;;5.72;1.38;;;;;;;8.28;100.00;100176.81;5036934;28;20040;-63
2023/12/22 10:51:48;;;;;;;4.95;0.88;;;;;;;8.29;100.00;100168.25;5050516;28;20053;-63
2023/12/22 10:54:14;;;;;;;3.65;0.98;;;;;;;8.32;100.00;100181.25;5050439;28;20108;-64
2023/12/22 10:56:40;;;;;;;4.63;1.48;;;;;;;8.31;100.00;100184.63;5037159;28;20569;-63
2023/12/22 10:59:06;;;;;;;5.60;1.52;;;;;;;8.34;100.00;100183.88;5047723;28;20028;-63
2023/12/22 11:01:34;;;;;;;3.00;1.10;;;;;;;8.35;100.00;100176.16;5048167;28;20040;-63
2023/12/22 11:04:06;;;;;;;7.55;1.60;;;;;;;8.36;100.00;100161.56;5040483;28;20036;-63
2023/12/22 11:06:33;;;;;;;;;;;;;;;8.37;100.00;100169.34;5031336;28;20473;-63
2023/12/22 11:09:01;;;;;;;4.75;0.93;;;;;;;8.37;100.00;100171.94;5045067;28;19936;-63
2023/12/22 11:11:31;;;;;;;5.43;1.00;;;;;;;8.39;100.00;100172.84;5037379;28;20104;-63
2023/12/22 11:13:58;;;;;;;5.45;1.58;;;;;;;8.40;100.00;100173.75;5046132;28;20366;-63